Time;durP1;ratioP1;P1;durP2;ratioP2;P2;SDS_P1;SDS_P2;PMS_P1;PMS_P2;Temp;Humidity;BMP_temperature;BMP_pressure;BME280_temperature;BME280_humidity;BME280_pressure;Samples;Min_cycle;Max_cycle;Signal;HPM_P1;HPM_P2
2023/11/28 00:00:01;;;;;;;1999.90;999.90;;;;;;;-2.17;80.52;96020.22;5116141;28;20081;-59
2023/11/28 00:02:28;;;;;;;1999.90;999.90;;;;;;;-2.22;80.87;96018.50;5115975;28;20043;-61
2023/11/28 00:04:56;;;;;;;1999.90;999.90;;;;;;;-2.29;81.12;96007.34;5116137;28;20044;-62
2023/11/28 00:07:23;;;;;;;1999.90;999.90;;;;;;;-2.32;81.61;96012.50;5115774;28;20047;-64
2023/11/28 00:09:50;;;;;;;1999.90;999.90;;;;;;;-2.35;81.72;96022.72;5115811;28;20048;-62
2023/11/28 00:12:18;;;;;;;1999.90;999.90;;;;;;;-2.35;81.41;96021.00;5115822;28;20137;-60
2023/11/28 00:14:46;;;;;;;1999.90;999.90;;;;;;;-2.30;81.27;96031.28;5116009;28;20112;-59
2023/11/28 00:17:15;;;;;;;1999.90;999.90;;;;;;;-2.36;81.23;96032.09;5115776;28;20105;-65
2023/11/28 00:19:45;;;;;;;1999.90;999.90;;;;;;;-2.34;80.95;96038.13;5115682;28;20047;-66
2023/11/28 00:22:12;;;;;;;1999.90;999.90;;;;;;;-2.34;80.92;96027.84;5115779;28;20496;-59
2023/11/28 00:24:40;;;;;;;1999.90;999.90;;;;;;;-2.36;80.78;96026.13;5115313;28;20469;-63
2023/11/28 00:27:08;;;;;;;1999.90;999.90;;;;;;;-2.37;80.76;96035.53;5115532;28;20044;-62
2023/11/28 00:29:36;;;;;;;1999.90;999.90;;;;;;;-2.37;80.35;96025.28;5115310;28;20047;-60
2023/11/28 00:32:03;;;;;;;1999.90;999.90;;;;;;;-2.44;80.10;96031.22;5115433;28;20052;-63
2023/11/28 00:34:32;;;;;;;1999.90;999.90;;;;;;;-2.45;80.06;96015.00;5115242;28;20054;-62
2023/11/28 00:36:59;;;;;;;1999.90;999.90;;;;;;;-2.58;79.81;96016.63;5115600;28;20564;-60
2023/11/28 00:39:26;;;;;;;1999.90;999.90;;;;;;;-2.56;80.20;96014.09;5115253;28;20119;-62
2023/11/28 00:41:53;;;;;;;1999.90;999.90;;;;;;;-2.62;80.23;96012.31;5115118;28;20092;-64
2023/11/28 00:44:20;;;;;;;1999.90;999.90;;;;;;;-2.71;79.61;96004.63;5115096;28;20047;-62
2023/11/28 00:46:47;;;;;;;1999.90;999.90;;;;;;;-2.77;79.89;95999.44;5115317;28;20047;-62
2023/11/28 00:49:15;;;;;;;1999.90;999.90;;;;;;;-2.81;80.19;95999.44;5115188;28;20054;-63
2023/11/28 00:51:45;;;;;;;1999.90;999.90;;;;;;;-2.81;80.21;95984.06;5114921;28;20079;-62
2023/11/28 00:54:12;;;;;;;1999.90;999.90;;;;;;;-2.82;79.68;95981.50;5114965;28;20050;-59
2023/11/28 00:56:38;;;;;;;1999.90;999.90;;;;;;;-2.86;79.73;95979.78;5114785;28;20398;-60
2023/11/28 00:59:05;;;;;;;1999.90;999.90;;;;;;;-2.81;79.76;95978.06;5114932;28;20043;-60
2023/11/28 01:01:32;;;;;;;1999.90;999.90;;;;;;;-2.87;79.62;95973.78;5114920;28;20094;-65
2023/11/28 01:03:59;;;;;;;1999.90;999.90;;;;;;;-2.92;79.84;95971.19;5114738;28;20191;-62
2023/11/28 01:06:26;;;;;;;1999.90;999.90;;;;;;;-2.95;79.08;95975.47;5114600;28;20499;-62
2023/11/28 01:08:57;;;;;;;1999.90;999.90;;;;;;;-3.05;79.30;95982.19;5114761;28;20047;-63
2023/11/28 01:11:24;;;;;;;1999.90;999.90;;;;;;;-3.08;79.81;95982.19;5114595;28;20050;-58
2023/11/28 01:13:51;;;;;;;1999.90;999.90;;;;;;;-3.13;79.81;95981.31;5114712;28;20101;-59
2023/11/28 01:16:18;;;;;;;1999.90;999.90;;;;;;;-3.17;80.61;95982.97;5114821;28;20056;-63
2023/11/28 01:18:46;;;;;;;1999.90;999.90;;;;;;;-3.17;80.93;95981.28;5114460;28;20477;-63
2023/11/28 01:21:13;;;;;;;1999.90;999.90;;;;;;;-3.10;80.71;95974.47;5114408;28;20058;-58
2023/11/28 01:23:40;;;;;;;1999.90;999.90;;;;;;;-3.10;80.90;95964.25;5114334;28;20043;-63
2023/11/28 01:26:08;;;;;;;1999.90;999.90;;;;;;;-3.08;80.94;95967.69;5114162;28;20048;-61
2023/11/28 01:28:36;;;;;;;1999.90;999.90;;;;;;;-3.03;80.84;95961.72;5114164;28;20047;-60
2023/11/28 01:31:04;;;;;;;1999.90;999.90;;;;;;;-3.00;80.89;95969.44;5114293;28;20056;-60
2023/11/28 01:33:31;;;;;;;1999.90;999.90;;;;;;;-3.09;81.50;95968.53;5114221;28;20393;-63
2023/11/28 01:35:58;;;;;;;1999.90;999.90;;;;;;;-3.10;82.26;95961.69;5114310;28;20462;-60
2023/11/28 01:38:25;;;;;;;1999.90;999.90;;;;;;;-2.98;82.75;95970.31;5114053;28;20048;-64
2023/11/28 01:40:52;;;;;;;1999.90;999.90;;;;;;;-2.89;83.32;95957.53;5114540;28;20100;-66
2023/11/28 01:43:28;;;;;;;1999.90;999.90;;;;;;;-2.83;83.57;95943.94;5113533;28;20063;-63
2023/11/28 01:45:56;;;;;;;1999.90;999.90;;;;;;;-2.74;83.22;95943.13;5114012;28;20086;-66
2023/11/28 01:48:24;;;;;;;1999.90;999.90;;;;;;;-2.69;82.63;95942.31;5114198;28;20079;-62
2023/11/28 01:50:52;;;;;;;1999.90;999.90;;;;;;;-2.66;82.83;95936.34;5114041;28;20124;-61
2023/11/28 01:53:21;;;;;;;1999.90;999.90;;;;;;;-2.64;82.19;95937.22;5113870;28;20043;-66
2023/11/28 01:55:49;;;;;;;1999.90;999.90;;;;;;;-2.68;82.12;95931.19;5113804;28;20050;-65
2023/11/28 01:58:16;;;;;;;1999.90;999.90;;;;;;;-2.64;82.61;95931.22;5113719;28;20566;-64
2023/11/28 02:00:47;;;;;;;1999.90;999.90;;;;;;;-2.59;82.79;95921.84;5113740;28;20048;-62
2023/11/28 02:03:15;;;;;;;1999.90;999.90;;;;;;;-2.51;82.96;95914.19;5113787;28;20048;-61
2023/11/28 02:05:42;;;;;;;1999.90;999.90;;;;;;;-2.52;83.01;95910.78;5113759;28;20573;-60
2023/11/28 02:08:10;;;;;;;1999.90;999.90;;;;;;;-2.48;83.08;95904.81;5113728;28;20122;-64
2023/11/28 02:10:39;;;;;;;1999.90;999.90;;;;;;;-2.50;83.03;95906.50;5113634;28;20048;-61
2023/11/28 02:13:06;;;;;;;1999.90;999.90;;;;;;;-2.53;83.43;95906.50;5113511;28;20043;-63
2023/11/28 02:15:41;;;;;;;1999.90;999.90;;;;;;;-2.54;83.84;95900.53;5113078;28;20044;-63
2023/11/28 02:18:11;;;;;;;1999.90;999.90;;;;;;;-2.48;83.95;95893.69;5113658;28;20093;-63
2023/11/28 02:20:38;;;;;;;1999.90;999.90;;;;;;;-2.43;83.95;95894.59;5113571;28;20048;-62
2023/11/28 02:23:05;;;;;;;1999.90;999.90;;;;;;;-2.42;83.79;95886.03;5113719;28;20043;-64
2023/11/28 02:25:35;;;;;;;1999.90;999.90;;;;;;;-2.47;83.88;95890.31;5113127;28;20056;-64
2023/11/28 02:28:04;;;;;;;1999.90;999.90;;;;;;;-2.48;83.85;95889.44;5113436;28;20054;-65
2023/11/28 02:30:31;;;;;;;1999.90;999.90;;;;;;;-2.50;83.65;95887.72;5113570;28;20405;-61
2023/11/28 02:32:58;;;;;;;1999.90;999.90;;;;;;;-2.61;83.87;95891.13;5113507;28;20482;-63
2023/11/28 02:35:25;;;;;;;1999.90;999.90;;;;;;;-2.56;83.58;95881.72;5113481;28;20101;-66
2023/11/28 02:37:52;;;;;;;1999.90;999.90;;;;;;;-2.46;83.38;95879.19;5113419;28;20123;-61
2023/11/28 02:40:19;;;;;;;1999.90;999.90;;;;;;;-2.43;83.81;95892.88;5113410;28;20051;-63
2023/11/28 02:42:46;;;;;;;1999.90;999.90;;;;;;;-2.34;83.66;95891.19;5113365;28;20055;-64
2023/11/28 02:45:15;;;;;;;1999.90;999.90;;;;;;;-2.37;83.43;95892.03;5113652;28;20130;-65
2023/11/28 02:47:42;;;;;;;1999.90;999.90;;;;;;;-2.40;83.10;95889.47;5113408;28;20055;-65
2023/11/28 02:50:10;;;;;;;1999.90;999.90;;;;;;;-2.37;82.83;95893.75;5113128;28;20134;-62
2023/11/28 02:52:40;;;;;;;1999.90;999.90;;;;;;;-2.33;82.78;95890.31;5113257;28;20130;-63
2023/11/28 02:55:07;;;;;;;1999.90;999.90;;;;;;;-2.27;82.65;95885.22;5113334;28;20123;-59
2023/11/28 02:57:35;;;;;;;1999.90;999.90;;;;;;;-2.24;82.51;95879.25;5113509;28;20044;-63
2023/11/28 03:00:04;;;;;;;1999.90;999.90;;;;;;;-2.19;82.14;95869.88;5113150;28;20135;-63
2023/11/28 03:02:34;;;;;;;1999.90;999.90;;;;;;;-2.15;81.99;95866.44;5113178;28;20043;-62
2023/11/28 03:05:01;;;;;;;1999.90;999.90;;;;;;;-2.14;81.84;95862.19;5113227;28;20043;-61
2023/11/28 03:07:28;;;;;;;1999.90;999.90;;;;;;;-2.13;82.26;95859.63;5113139;28;20075;-63
2023/11/28 03:09:55;;;;;;;1999.90;999.90;;;;;;;-2.13;82.30;95853.63;5113055;28;20052;-60
2023/11/28 03:12:22;;;;;;;1999.90;999.90;;;;;;;-2.11;81.77;95859.63;5113118;28;20112;-62
2023/11/28 03:14:50;;;;;;;1999.90;999.90;;;;;;;-2.05;81.68;95857.03;5112971;28;20493;-62
2023/11/28 03:17:17;;;;;;;1999.90;999.90;;;;;;;-2.01;82.33;95863.91;5112945;28;20473;-61
2023/11/28 03:19:45;;;;;;;1999.90;999.90;;;;;;;-2.00;82.08;95847.66;5112866;28;20486;-61
2023/11/28 03:22:12;;;;;;;1999.90;999.90;;;;;;;-1.92;81.79;95851.06;5112952;28;20051;-62
2023/11/28 03:24:41;;;;;;;1999.90;999.90;;;;;;;-1.92;81.98;95851.06;5112866;28;20048;-63
2023/11/28 03:27:08;;;;;;;1999.90;999.90;;;;;;;-1.97;81.86;95845.09;5114674;28;20135;-64
2023/11/28 03:29:36;;;;;;;1999.90;999.90;;;;;;;-2.06;82.54;95843.41;5116876;28;20120;-61
2023/11/28 03:32:03;;;;;;;1999.90;999.90;;;;;;;-2.00;82.76;95837.41;5116552;28;20126;-59
2023/11/28 03:34:30;;;;;;;1999.90;999.90;;;;;;;-1.97;82.97;95834.84;5116556;28;20044;-61
2023/11/28 03:36:59;;;;;;;1999.90;999.90;;;;;;;-1.91;83.04;95839.13;5116382;28;20467;-64
2023/11/28 03:39:26;;;;;;;1999.90;999.90;;;;;;;-1.92;83.06;95838.25;5116709;28;20131;-63
2023/11/28 03:41:53;;;;;;;1999.90;999.90;;;;;;;-1.94;83.12;95829.72;5116603;28;20085;-59
2023/11/28 03:44:21;;;;;;;1999.90;999.90;;;;;;;-1.96;83.13;95821.16;5116542;28;20134;-62
2023/11/28 03:46:48;;;;;;;1999.90;999.90;;;;;;;-1.87;83.28;95816.91;5116181;28;20052;-60
2023/11/28 03:49:15;;;;;;;1999.90;999.90;;;;;;;-1.81;83.49;95812.63;5116183;28;20596;-63
2023/11/28 03:51:42;;;;;;;1999.90;999.90;;;;;;;-1.76;83.46;95812.63;5116161;28;20489;-62
2023/11/28 03:54:11;;;;;;;1999.90;999.90;;;;;;;-1.71;83.39;95810.91;5116248;28;20039;-64
2023/11/28 03:56:38;;;;;;;1999.90;999.90;;;;;;;-1.64;83.50;95816.88;5116543;28;20116;-64
2023/11/28 03:59:04;;;;;;;1999.90;999.90;;;;;;;-1.63;83.76;95812.59;5116133;28;20128;-64
2023/11/28 04:01:32;;;;;;;1999.90;999.90;;;;;;;-1.61;83.68;95810.88;5115888;28;20116;-63
2023/11/28 04:03:59;;;;;;;1999.90;999.90;;;;;;;-1.57;83.49;95808.31;5116024;28;20081;-62
2023/11/28 04:06:26;;;;;;;1999.90;999.90;;;;;;;-1.58;83.33;95787.78;5115882;28;20073;-60
2023/11/28 04:08:53;;;;;;;1999.90;999.90;;;;;;;-1.55;83.46;95788.66;5115769;28;20052;-61
2023/11/28 04:11:22;;;;;;;1999.90;999.90;;;;;;;-1.49;83.09;95781.78;5116239;28;20129;-61
2023/11/28 04:13:49;;;;;;;1999.90;999.90;;;;;;;-1.57;82.84;95772.38;5115987;28;20096;-63
2023/11/28 04:16:17;;;;;;;1999.90;999.90;;;;;;;-1.57;82.93;95776.66;5115657;28;20052;-66
2023/11/28 04:18:47;;;;;;;1999.90;999.90;;;;;;;-1.57;82.95;95777.53;5115616;28;20491;-59
2023/11/28 04:21:19;;;;;;;1999.90;999.90;;;;;;;-1.54;83.47;95786.91;5115535;28;20523;-60
2023/11/28 04:23:47;;;;;;;1999.90;999.90;;;;;;;-1.59;83.51;95776.69;5115760;28;20075;-61
2023/11/28 04:26:14;;;;;;;1999.90;999.90;;;;;;;-1.67;83.32;95770.69;5115431;28;20416;-62
2023/11/28 04:28:43;;;;;;;1999.90;999.90;;;;;;;-1.62;83.50;95786.97;5115431;28;20051;-64
2023/11/28 04:31:17;;;;;;;1999.90;999.90;;;;;;;-1.63;83.54;95786.97;5115545;28;20074;-65
2023/11/28 04:33:44;;;;;;;1999.90;999.90;;;;;;;-1.57;83.19;95784.34;5115380;28;20497;-65
2023/11/28 04:36:11;;;;;;;1999.90;999.90;;;;;;;-1.52;83.12;95782.66;5115472;28;20044;-64
2023/11/28 04:38:38;;;;;;;1999.90;999.90;;;;;;;-1.50;83.06;95780.06;5115119;28;20048;-62
2023/11/28 04:41:06;;;;;;;1999.90;999.90;;;;;;;-1.55;83.17;95768.13;5115197;28;20051;-64
2023/11/28 04:43:33;;;;;;;1999.90;999.90;;;;;;;-1.48;83.02;95763.81;5115324;28;20039;-60
2023/11/28 04:46:01;;;;;;;1999.90;999.90;;;;;;;-1.45;83.14;95765.50;5115227;28;20047;-63
2023/11/28 04:48:28;;;;;;;1999.90;999.90;;;;;;;-1.44;82.90;95767.25;5115394;28;20048;-62
2023/11/28 04:50:55;;;;;;;1999.90;999.90;;;;;;;-1.52;82.52;95762.13;5114925;28;20135;-62
2023/11/28 04:53:23;;;;;;;1999.90;999.90;;;;;;;-1.61;82.67;95763.00;5115013;28;20386;-60
2023/11/28 04:55:49;;;;;;;1999.90;999.90;;;;;;;-1.69;83.16;95768.13;5115297;28;20047;-66
2023/11/28 04:58:16;;;;;;;1999.90;999.90;;;;;;;-1.70;83.49;95763.88;5114853;28;20048;-62
2023/11/28 05:00:43;;;;;;;1999.90;999.90;;;;;;;-1.75;83.67;95757.88;5114950;28;20039;-62
2023/11/28 05:03:13;;;;;;;1999.90;999.90;;;;;;;-1.80;84.44;95760.47;5114820;28;20134;-60
2023/11/28 05:05:40;;;;;;;1999.90;999.90;;;;;;;-1.73;84.67;95745.94;5114843;28;20378;-62
2023/11/28 05:08:07;;;;;;;1999.90;999.90;;;;;;;-1.70;84.74;95722.84;5114730;28;20134;-66
2023/11/28 05:10:34;;;;;;;1999.90;999.90;;;;;;;-1.63;84.62;95727.97;5114469;28;20097;-66
2023/11/28 05:13:03;;;;;;;1999.90;999.90;;;;;;;-1.64;84.48;95732.22;5114586;28;20040;-65
2023/11/28 05:15:30;;;;;;;1999.90;999.90;;;;;;;-1.61;84.30;95749.31;5114577;28;20039;-62
2023/11/28 05:17:57;;;;;;;1999.90;999.90;;;;;;;-1.56;84.40;95740.75;5114823;28;20044;-62
2023/11/28 05:20:26;;;;;;;1999.90;999.90;;;;;;;-1.49;84.30;95741.59;5114478;28;20102;-67
2023/11/28 05:22:53;;;;;;;1999.90;999.90;;;;;;;-1.46;84.41;95749.28;5114464;28;20040;-63
2023/11/28 05:25:20;;;;;;;1999.90;999.90;;;;;;;-1.39;84.34;95737.25;5114070;28;20055;-61
2023/11/28 05:27:48;;;;;;;1999.90;999.90;;;;;;;-1.38;84.73;95749.25;5114450;28;20083;-62
2023/11/28 05:30:15;;;;;;;1999.90;999.90;;;;;;;-1.35;84.72;95731.28;5114233;28;20409;-65
2023/11/28 05:32:45;;;;;;;1999.90;999.90;;;;;;;-1.28;84.25;95725.25;5114253;28;20043;-62
2023/11/28 05:35:12;;;;;;;1999.90;999.90;;;;;;;-1.28;84.34;95720.13;5114292;28;20051;-65
2023/11/28 05:37:41;;;;;;;1999.90;999.90;;;;;;;-1.28;84.18;95722.69;5114223;28;20047;-64
2023/11/28 05:40:09;;;;;;;1999.90;999.90;;;;;;;-1.33;83.61;95718.44;5114056;28;20481;-64
2023/11/28 05:42:36;;;;;;;1999.90;999.90;;;;;;;-1.32;82.23;95710.72;5114140;28;20051;-59
2023/11/28 05:45:05;;;;;;;1999.90;999.90;;;;;;;-1.33;81.81;95709.00;5114335;28;20060;-64
2023/11/28 05:47:33;;;;;;;1999.90;999.90;;;;;;;-1.32;82.13;95702.19;5114285;28;20142;-61
2023/11/28 05:50:00;;;;;;;1999.90;999.90;;;;;;;-1.25;82.58;95708.13;5113205;28;20056;-63
2023/11/28 05:52:28;;;;;;;1999.90;999.90;;;;;;;-1.20;82.46;95711.53;5113968;28;20043;-62
2023/11/28 05:54:57;;;;;;;1999.90;999.90;;;;;;;-1.09;82.40;95711.50;5113892;28;20051;-63
2023/11/28 05:57:26;;;;;;;1999.90;999.90;;;;;;;-0.96;81.98;95719.97;5113874;28;20554;-62
2023/11/28 05:59:53;;;;;;;1999.90;999.90;;;;;;;-0.90;81.79;95710.50;5114028;28;20043;-65
2023/11/28 06:02:20;;;;;;;1999.90;999.90;;;;;;;-0.78;81.01;95713.88;5113837;28;20101;-63
2023/11/28 06:04:47;;;;;;;1999.90;999.90;;;;;;;-0.66;81.08;95710.38;5113625;28;20051;-65
2023/11/28 06:07:14;;;;;;;1999.90;999.90;;;;;;;-0.47;80.69;95710.22;5113929;28;20128;-64
2023/11/28 06:09:41;;;;;;;1999.90;999.90;;;;;;;-0.28;80.33;95721.19;5113640;28;20553;-62
2023/11/28 06:12:10;;;;;;;1999.90;999.90;;;;;;;-0.09;79.69;95716.75;5113690;28;20066;-61
2023/11/28 06:14:38;;;;;;;1999.90;999.90;;;;;;;0.08;78.36;95708.88;5113645;28;20087;-61
2023/11/28 06:17:05;;;;;;;1999.90;999.90;;;;;;;0.17;76.05;95699.38;5113800;28;20127;-62
2023/11/28 06:19:34;;;;;;;1999.90;999.90;;;;;;;0.34;75.86;95694.91;5113295;28;20175;-64
2023/11/28 06:22:01;;;;;;;1999.90;999.90;;;;;;;0.71;75.22;95687.59;5113494;28;20044;-63
2023/11/28 06:24:28;;;;;;;1999.90;999.90;;;;;;;1.24;73.48;95692.88;5113454;28;20047;-60
2023/11/28 06:26:55;;;;;;;1999.90;999.90;;;;;;;2.50;68.91;95696.84;5113289;28;20051;-65
2023/11/28 06:29:23;;;;;;;1999.90;999.90;;;;;;;3.44;63.71;95685.38;5113500;28;20052;-65
2023/11/28 06:31:51;;;;;;;1999.90;999.90;;;;;;;4.12;59.88;95695.78;5113471;28;20490;-62
2023/11/28 06:34:18;;;;;;;1999.90;999.90;;;;;;;4.75;56.99;95697.56;5113373;28;20494;-61
2023/11/28 06:36:45;;;;;;;1999.90;999.90;;;;;;;6.05;54.30;95698.88;5113395;28;20043;-64
2023/11/28 06:39:12;;;;;;;1999.90;999.90;;;;;;;7.56;52.51;95706.44;5113401;28;20050;-62
2023/11/28 06:41:40;;;;;;;1999.90;999.90;;;;;;;9.36;46.93;95693.66;5113393;28;20421;-62
2023/11/28 06:44:07;;;;;;;1999.90;999.90;;;;;;;10.98;42.80;95658.72;5113219;28;20489;-62
2023/11/28 06:46:35;;;;;;;1999.90;999.90;;;;;;;12.45;39.01;95666.28;5113403;28;20051;-62
2023/11/28 06:49:03;;;;;;;1999.90;999.90;;;;;;;13.17;37.46;95667.25;5113611;28;20047;-63
2023/11/28 06:51:30;;;;;;;1999.90;999.90;;;;;;;13.43;36.29;95659.50;5113127;28;20052;-64
2023/11/28 06:53:57;;;;;;;1999.90;999.90;;;;;;;14.01;35.30;95654.09;5113319;28;20477;-65
2023/11/28 06:56:24;;;;;;;1999.90;999.90;;;;;;;14.05;35.13;95652.09;5113390;28;20044;-62
2023/11/28 06:58:52;;;;;;;1999.90;999.90;;;;;;;13.47;35.51;95650.50;5113236;28;20055;-63
2023/11/28 07:01:21;;;;;;;1999.90;999.90;;;;;;;12.75;35.85;95658.38;5115836;28;20081;-64
2023/11/28 07:03:50;;;;;;;1999.90;999.90;;;;;;;11.84;37.62;95654.91;5117230;28;20135;-64
2023/11/28 07:06:17;;;;;;;1999.90;999.90;;;;;;;11.12;38.70;95637.91;5117360;28;20043;-61
2023/11/28 07:08:44;;;;;;;1999.90;999.90;;;;;;;10.64;40.04;95642.19;5117171;28;20047;-63
2023/11/28 07:11:19;;;;;;;1999.90;999.90;;;;;;;10.46;41.09;95648.31;5116950;28;20142;-60
2023/11/28 07:13:47;;;;;;;1999.90;999.90;;;;;;;10.77;41.12;95645.84;5116992;28;20126;-64
2023/11/28 07:16:14;;;;;;;1999.90;999.90;;;;;;;11.07;40.00;95647.75;5117229;28;20107;-62
2023/11/28 07:18:41;;;;;;;1999.90;999.90;;;;;;;11.09;39.61;95639.81;5116922;28;20047;-64
2023/11/28 07:21:10;;;;;;;1999.90;999.90;;;;;;;10.96;39.62;95640.47;5116909;28;20044;-64
2023/11/28 07:23:38;;;;;;;1999.90;999.90;;;;;;;11.01;39.25;95635.00;5116962;28;20063;-66
2023/11/28 07:26:06;;;;;;;1999.90;999.90;;;;;;;11.05;38.50;95622.59;5116461;28;20051;-63
2023/11/28 07:28:33;;;;;;;1999.90;999.90;;;;;;;11.03;38.37;95630.53;5116658;28;20127;-63
2023/11/28 07:31:01;;;;;;;1999.90;999.90;;;;;;;10.94;38.57;95633.63;5116600;28;20048;-65
2023/11/28 07:33:28;;;;;;;1999.90;999.90;;;;;;;10.62;38.92;95629.19;5116628;28;20405;-64
2023/11/28 07:35:55;;;;;;;1999.90;999.90;;;;;;;9.99;41.32;95621.03;5116791;28;20501;-63
2023/11/28 07:38:24;;;;;;;1999.90;999.90;;;;;;;9.25;42.23;95634.16;5116829;28;20044;-64
2023/11/28 07:40:51;;;;;;;1999.90;999.90;;;;;;;8.55;43.58;95622.50;5116497;28;20050;-63
2023/11/28 07:43:18;;;;;;;1999.90;999.90;;;;;;;8.00;44.88;95604.91;5116339;28;20047;-63
2023/11/28 07:45:46;;;;;;;1999.90;999.90;;;;;;;7.50;45.54;95601.75;5116419;28;20047;-63
2023/11/28 07:48:13;;;;;;;1999.90;999.90;;;;;;;6.97;46.68;95602.06;5116267;28;20055;-63
2023/11/28 07:50:40;;;;;;;1999.90;999.90;;;;;;;6.57;47.81;95594.03;5116284;28;20075;-64
2023/11/28 07:53:08;;;;;;;1999.90;999.90;;;;;;;6.21;48.66;95586.66;5116220;28;20093;-64
2023/11/28 07:55:38;;;;;;;1999.90;999.90;;;;;;;5.85;49.70;95578.34;5116102;28;20086;-64
2023/11/28 07:58:05;;;;;;;1999.90;999.90;;;;;;;5.55;52.08;95587.13;5116215;28;20124;-62
2023/11/28 08:00:32;;;;;;;1999.90;999.90;;;;;;;5.27;53.75;95589.75;5116164;28;20051;-60
2023/11/28 08:03:01;;;;;;;1999.90;999.90;;;;;;;5.08;54.03;95579.97;5116018;28;20076;-63
2023/11/28 08:05:28;;;;;;;1999.90;999.90;;;;;;;4.92;54.82;95583.06;5116272;28;20047;-63
2023/11/28 08:07:55;;;;;;;1999.90;999.90;;;;;;;4.76;55.48;95568.88;5115859;28;20452;-63
2023/11/28 08:10:22;;;;;;;1999.90;999.90;;;;;;;4.58;56.68;95575.44;5115888;28;20043;-63
2023/11/28 08:12:51;;;;;;;1999.90;999.90;;;;;;;4.41;57.78;95562.09;5115121;28;20043;-64
2023/11/28 08:15:18;;;;;;;1999.90;999.90;;;;;;;4.32;58.25;95566.69;5115908;28;20043;-64
2023/11/28 08:17:46;;;;;;;1999.90;999.90;;;;;;;4.22;58.46;95563.50;5115738;28;20112;-62
2023/11/28 08:20:13;;;;;;;1999.90;999.90;;;;;;;4.09;58.85;95550.91;5115856;28;20047;-63
2023/11/28 08:22:40;;;;;;;1999.90;999.90;;;;;;;3.99;58.45;95527.03;5115599;28;20054;-64
2023/11/28 08:25:08;;;;;;;1999.90;999.90;;;;;;;3.91;58.51;95531.56;5115545;28;20095;-63
2023/11/28 08:27:35;;;;;;;1999.90;999.90;;;;;;;3.86;58.93;95536.03;5115638;28;20126;-64
2023/11/28 08:30:04;;;;;;;1999.90;999.90;;;;;;;3.79;59.87;95523.25;5115584;28;20104;-65
2023/11/28 08:32:32;;;;;;;1999.90;999.90;;;;;;;3.78;60.20;95528.47;5115499;28;20044;-64
2023/11/28 08:34:59;;;;;;;1999.90;999.90;;;;;;;3.76;60.85;95535.41;5115517;28;20454;-65
2023/11/28 08:37:26;;;;;;;1999.90;999.90;;;;;;;3.66;61.36;95521.88;5115400;28;20048;-63
2023/11/28 08:39:53;;;;;;;1999.90;999.90;;;;;;;3.62;61.79;95523.72;5115376;28;20050;-62
2023/11/28 08:42:20;;;;;;;1999.90;999.90;;;;;;;3.58;61.90;95508.34;5115378;28;20048;-62
2023/11/28 08:44:47;;;;;;;1999.90;999.90;;;;;;;3.55;62.38;95501.47;5115223;28;20058;-64
2023/11/28 08:47:16;;;;;;;1999.90;999.90;;;;;;;3.49;62.65;95497.31;5115151;28;20065;-63
2023/11/28 08:49:45;;;;;;;1999.90;999.90;;;;;;;3.46;63.02;95484.47;5115110;28;20047;-65
2023/11/28 08:52:12;;;;;;;1999.90;999.90;;;;;;;3.42;62.77;95477.69;5115133;28;20079;-63
2023/11/28 08:54:42;;;;;;;1999.90;999.90;;;;;;;3.38;63.40;95465.75;5115370;28;20048;-63
2023/11/28 08:57:10;;;;;;;1999.90;999.90;;;;;;;3.37;63.48;95471.81;5115121;28;20063;-62
2023/11/28 08:59:38;;;;;;;1999.90;999.90;;;;;;;3.36;63.03;95465.78;5115017;28;20043;-64
2023/11/28 09:02:05;;;;;;;1999.90;999.90;;;;;;;3.27;63.63;95461.72;5114846;28;20040;-65
2023/11/28 09:04:34;;;;;;;1999.90;999.90;;;;;;;3.13;60.10;95446.56;5115030;28;20523;-63
2023/11/28 09:07:01;;;;;;;1999.90;999.90;;;;;;;2.99;60.40;95434.00;5114698;28;20127;-62
2023/11/28 09:09:28;;;;;;;1999.90;999.90;;;;;;;3.01;60.81;95434.78;5114961;28;20588;-61
2023/11/28 09:11:55;;;;;;;1999.90;999.90;;;;;;;3.03;60.78;95432.16;5114597;28;20134;-65
2023/11/28 09:14:22;;;;;;;1999.90;999.90;;;;;;;3.07;61.40;95422.63;5114552;28;20073;-65
2023/11/28 09:16:49;;;;;;;1999.90;999.90;;;;;;;3.14;62.73;95409.50;5114537;28;20050;-66
2023/11/28 09:19:17;;;;;;;1999.90;999.90;;;;;;;3.21;62.89;95410.16;5114426;28;20455;-62
2023/11/28 09:21:45;;;;;;;1999.90;999.90;;;;;;;3.29;62.63;95395.28;5114418;28;20100;-60
2023/11/28 09:24:12;;;;;;;1999.90;999.90;;;;;;;3.35;62.29;95380.50;5113543;28;20071;-66
2023/11/28 09:26:39;;;;;;;1999.90;999.90;;;;;;;3.38;61.73;95383.88;5114289;28;20108;-61
2023/11/28 09:29:06;;;;;;;1999.90;999.90;;;;;;;3.40;60.01;95387.25;5114393;28;20138;-65
2023/11/28 09:31:36;;;;;;;1999.90;999.90;;;;;;;3.39;61.45;95382.97;5114248;28;20048;-63
2023/11/28 09:34:03;;;;;;;1999.90;999.90;;;;;;;3.45;63.19;95371.59;5114301;28;20059;-61
2023/11/28 09:36:31;;;;;;;1999.90;999.90;;;;;;;3.46;63.80;95369.88;5114158;28;20484;-64
2023/11/28 09:39:03;;;;;;;1999.90;999.90;;;;;;;3.47;63.60;95350.88;5114171;28;20051;-62
2023/11/28 09:41:35;;;;;;;1999.90;999.90;;;;;;;3.47;62.75;95349.16;5114046;28;20100;-65
2023/11/28 09:44:03;;;;;;;1999.90;999.90;;;;;;;3.39;63.74;95345.91;5114047;28;20044;-66
2023/11/28 09:46:31;;;;;;;1999.90;999.90;;;;;;;3.36;64.90;95341.69;5114095;28;20100;-63
2023/11/28 09:49:02;;;;;;;1999.90;999.90;;;;;;;3.40;65.04;95324.34;5114035;28;20043;-65
2023/11/28 09:51:30;;;;;;;1999.90;999.90;;;;;;;3.37;64.46;95312.34;5113850;28;20054;-63
2023/11/28 09:53:59;;;;;;;1999.90;999.90;;;;;;;3.32;65.30;95314.25;5114189;28;20051;-65
2023/11/28 09:56:26;;;;;;;1999.90;999.90;;;;;;;3.28;65.56;95307.44;5113925;28;20058;-64
2023/11/28 09:58:57;;;;;;;1999.90;999.90;;;;;;;3.25;66.33;95297.22;5113855;28;20127;-65
2023/11/28 10:01:25;;;;;;;;;;;;;;;3.18;67.12;95296.53;5114382;28;20130;-64
2023/11/28 10:03:53;;;;;;;1999.90;999.90;;;;;;;3.09;68.33;95289.03;5113831;28;19951;-62
2023/11/28 10:06:22;;;;;;;1999.90;999.90;;;;;;;3.03;68.48;95280.59;5113954;28;20054;-62
2023/11/28 10:08:50;;;;;;;1999.90;999.90;;;;;;;3.01;68.28;95268.59;5113833;28;20043;-62
2023/11/28 10:11:22;;;;;;;1999.90;999.90;;;;;;;3.01;68.55;95253.09;5113556;28;20048;-61
2023/11/28 10:13:50;;;;;;;1999.90;999.90;;;;;;;2.96;68.17;95242.03;5113755;28;20105;-63
2023/11/28 10:16:20;;;;;;;1999.90;999.90;;;;;;;2.81;68.61;95227.81;5113659;28;20489;-62
2023/11/28 10:18:48;;;;;;;1999.90;999.90;;;;;;;2.85;69.39;95232.00;5113631;28;20047;-63
2023/11/28 10:21:17;;;;;;;1999.90;999.90;;;;;;;2.82;69.96;95227.78;5113647;28;20051;-61
2023/11/28 10:23:48;;;;;;;1999.90;999.90;;;;;;;2.81;69.93;95220.94;5113476;28;20059;-61
2023/11/28 10:26:15;;;;;;;;;;;;;;;2.77;70.87;95201.25;5114016;28;20454;-62
2023/11/28 10:28:43;;;;;;;1999.90;999.90;;;;;;;2.68;68.67;95201.50;5113616;28;19919;-64
2023/11/28 10:31:10;;;;;;;1999.90;999.90;;;;;;;2.71;68.86;95199.66;5113486;28;20451;-64
2023/11/28 10:33:37;;;;;;;1999.90;999.90;;;;;;;2.72;70.19;95180.72;5113270;28;20401;-63
2023/11/28 10:36:05;;;;;;;1999.90;999.90;;;;;;;2.66;70.72;95183.47;5115620;28;20476;-64
2023/11/28 10:38:34;;;;;;;1999.90;999.90;;;;;;;2.55;70.85;95175.16;5117562;28;20043;-64
2023/11/28 10:41:02;;;;;;;1999.90;999.90;;;;;;;2.55;71.72;95170.00;5117613;28;20138;-64
2023/11/28 10:43:30;;;;;;;1999.90;999.90;;;;;;;2.55;70.67;95172.56;5117579;28;20039;-64
2023/11/28 10:45:59;;;;;;;1999.90;999.90;;;;;;;2.64;71.13;95168.00;5117472;28;20059;-63
2023/11/28 10:48:26;;;;;;;1999.90;999.90;;;;;;;2.75;71.71;95141.03;5117527;28;20050;-61
2023/11/28 10:50:55;;;;;;;1999.90;999.90;;;;;;;2.77;72.36;95127.19;5117382;28;20047;-61
2023/11/28 10:53:24;;;;;;;1999.90;999.90;;;;;;;2.78;71.68;95123.72;5117357;28;20044;-64
2023/11/28 10:55:53;;;;;;;1999.90;999.90;;;;;;;2.83;71.74;95123.56;5117402;28;20079;-62
2023/11/28 10:58:21;;;;;;;1999.90;999.90;;;;;;;2.84;72.00;95114.09;5117210;28;20087;-60